Time;durP1;ratioP1;P1;durP2;ratioP2;P2;SDS_P1;SDS_P2;PMS_P1;PMS_P2;Temp;Humidity;BMP_temperature;BMP_pressure;BME280_temperature;BME280_humidity;BME280_pressure;Samples;Min_cycle;Max_cycle;Signal;HPM_P1;HPM_P2
2023/04/12 00:01:03;;;;;;;2.88;1.20;;;5.80;88.60;;;;;;4989440;28;20132;-63
2023/04/12 00:03:29;;;;;;;8.07;1.60;;;5.80;87.80;;;;;;5009614;28;20104;-63
2023/04/12 00:05:55;;;;;;;7.78;1.77;;;5.80;87.70;;;;;;5010047;28;20049;-62
2023/04/12 00:08:32;;;;;;;5.72;1.27;;;5.80;88.50;;;;;;5008088;28;20056;-63
2023/04/12 00:10:59;;;;;;;5.78;2.33;;;5.90;86.20;;;;;;5008719;28;20548;-63
2023/04/12 00:13:25;;;;;;;9.52;1.60;;;5.90;87.40;;;;;;5007886;28;20534;-88
2023/04/12 00:15:51;;;;;;;4.97;1.48;;;5.90;85.10;;;;;;5010157;28;20052;-63
2023/04/12 00:18:17;;;;;;;7.03;1.80;;;5.90;85.50;;;;;;4991091;28;20107;-77
2023/04/12 00:20:42;;;;;;;8.05;1.52;;;5.90;85.60;;;;;;5009832;28;20394;-86
2023/04/12 00:23:09;;;;;;;10.77;2.28;;;6.00;86.30;;;;;;5008884;28;20046;-64
2023/04/12 00:25:37;;;;;;;3.13;0.70;;;5.90;87.40;;;;;;5008130;28;20053;-87
2023/04/12 00:28:03;;;;;;;5.97;1.80;;;6.00;86.10;;;;;;5009694;28;20042;-63
2023/04/12 00:30:28;;;;;;;0.55;0.55;;;6.00;86.40;;;;;;5008134;28;20481;-63
2023/04/12 00:32:54;;;;;;;18.30;1.73;;;6.00;87.70;;;;;;5007071;28;20470;-84
2023/04/12 00:35:20;;;;;;;8.43;1.30;;;6.00;86.30;;;;;;5007866;28;20050;-63
2023/04/12 00:37:46;;;;;;;6.00;1.52;;;6.00;86.90;;;;;;5009924;28;20046;-62
2023/04/12 00:40:11;;;;;;;9.32;2.50;;;6.00;86.90;;;;;;4990815;28;20383;-63
2023/04/12 00:42:37;;;;;;;5.95;1.48;;;6.10;84.50;;;;;;5008637;28;20140;-63
2023/04/12 00:45:05;;;;;;;5.88;1.52;;;6.00;84.30;;;;;;5008927;28;20076;-63
2023/04/12 00:47:33;;;;;;;9.98;1.73;;;6.10;84.80;;;;;;5007994;28;20056;-63
2023/04/12 00:50:00;;;;;;;4.65;1.17;;;6.10;85.70;;;;;;5009628;28;20048;-63
2023/04/12 00:52:27;;;;;;;7.00;1.50;;;6.10;84.70;;;;;;5005255;28;20110;-63
2023/04/12 00:54:53;;;;;;;5.50;1.35;;;6.10;85.00;;;;;;5007514;28;20078;-63
2023/04/12 00:57:19;;;;;;;5.35;1.13;;;6.10;85.30;;;;;;4991523;28;20125;-63
2023/04/12 00:59:45;;;;;;;3.72;0.80;;;6.10;84.80;;;;;;5009340;28;20056;-63
2023/04/12 01:02:11;;;;;;;8.70;1.73;;;6.10;85.80;;;;;;5010042;28;20045;-62
2023/04/12 01:04:38;;;;;;;9.73;1.90;;;6.20;85.70;;;;;;5009738;28;20038;-74
2023/04/12 01:07:24;;;;;;;7.68;1.42;;;6.20;87.20;;;;;;5009161;28;20046;-74
2023/04/12 01:10:12;;;;;;;7.28;1.52;;;6.20;88.50;;;;;;5007026;28;20042;-63
2023/04/12 01:13:06;;;;;;;7.47;1.48;;;6.20;87.40;;;;;;5008631;28;20045;-63
2023/04/12 01:15:36;;;;;;;4.85;1.42;;;6.20;86.90;;;;;;4991533;28;20062;-63
2023/04/12 01:18:10;;;;;;;6.72;1.35;;;6.20;87.80;;;;;;5007090;28;20038;-63
2023/04/12 01:20:43;;;;;;;6.40;1.63;;;6.20;89.10;;;;;;5008687;28;20042;-63
2023/04/12 01:23:38;;;;;;;6.30;1.88;;;6.30;89.40;;;;;;4989535;28;20048;-63
2023/04/12 01:26:35;;;;;;;2.60;1.10;;;6.30;89.80;;;;;;5007969;28;20435;-63
2023/04/12 01:29:08;;;;;;;8.05;1.70;;;6.30;88.80;;;;;;5000633;28;20061;-63
2023/04/12 01:31:35;;;;;;;7.75;1.50;;;6.40;88.00;;;;;;5007333;28;20146;-71
2023/04/12 01:34:03;;;;;;;7.07;1.88;;;6.40;88.70;;;;;;5008732;28;20107;-62
2023/04/12 01:36:29;;;;;;;4.03;1.58;;;6.40;89.30;;;;;;4989503;28;20046;-63
2023/04/12 01:38:56;;;;;;;10.00;2.00;;;6.40;89.50;;;;;;5007860;28;20104;-71
2023/04/12 01:41:22;;;;;;;8.57;1.45;;;6.40;89.70;;;;;;5008381;28;20049;-72
2023/04/12 01:43:48;;;;;;;9.55;1.48;;;6.40;89.60;;;;;;5007153;28;20096;-64
2023/04/12 01:46:17;;;;;;;12.13;2.03;;;6.40;90.00;;;;;;5008791;28;20042;-63
2023/04/12 01:48:49;;;;;;;11.07;1.63;;;6.50;90.20;;;;;;4988809;28;20085;-69
2023/04/12 01:51:41;;;;;;;5.53;0.90;;;6.50;90.00;;;;;;5008187;28;20392;-62
2023/04/12 01:54:24;;;;;;;3.60;0.60;;;6.60;90.20;;;;;;4996317;28;20060;-63
2023/04/12 01:56:56;;;;;;;8.13;2.08;;;6.60;88.00;;;;;;5007015;28;20132;-63
2023/04/12 01:59:26;;;;;;;5.25;1.15;;;6.70;87.80;;;;;;5007005;28;20057;-64
2023/04/12 02:01:52;;;;;;;6.88;1.75;;;6.70;88.30;;;;;;5006646;28;20152;-63
2023/04/12 02:04:19;;;;;;;4.70;1.27;;;6.70;88.50;;;;;;5008558;28;20092;-63
2023/04/12 02:06:46;;;;;;;11.35;2.20;;;6.80;87.10;;;;;;5006365;28;20484;-63
2023/04/12 02:09:12;;;;;;;5.80;1.20;;;6.80;87.70;;;;;;4989935;28;20567;-63
2023/04/12 02:11:38;;;;;;;0.70;0.47;;;6.80;88.90;;;;;;5007737;28;20136;-62
2023/04/12 02:14:03;;;;;;;7.43;1.40;;;6.80;89.40;;;;;;5006823;28;20125;-63
2023/04/12 02:16:31;;;;;;;4.60;1.30;;;6.80;90.00;;;;;;5008356;28;20046;-63
2023/04/12 02:18:57;;;;;;;10.30;2.00;;;6.80;90.40;;;;;;5006283;28;20488;-63
2023/04/12 02:21:25;;;;;;;7.55;1.60;;;6.80;90.60;;;;;;5008196;28;20435;-63
2023/04/12 02:23:50;;;;;;;7.25;2.38;;;6.80;90.80;;;;;;5006162;28;20045;-81
2023/04/12 02:26:16;;;;;;;10.57;2.22;;;6.80;91.00;;;;;;5008227;28;20049;-76
2023/04/12 02:28:43;;;;;;;10.80;1.45;;;6.90;91.20;;;;;;5006150;28;20080;-63
2023/04/12 02:31:09;;;;;;;9.52;1.80;;;6.80;91.60;;;;;;5009005;28;20046;-63
2023/04/12 02:33:34;;;;;;;11.82;2.15;;;6.80;92.10;;;;;;5011858;28;20116;-62
2023/04/12 02:36:03;;;;;;;7.15;1.35;;;6.80;92.50;;;;;;5009848;28;20439;-62
2023/04/12 02:38:30;;;;;;;5.85;1.58;;;6.70;92.90;;;;;;5012137;28;20033;-63
2023/04/12 02:40:55;;;;;;;8.88;1.80;;;6.70;93.10;;;;;;5010213;28;20125;-62
2023/04/12 02:43:21;;;;;;;7.43;2.08;;;6.70;93.40;;;;;;5010164;28;20133;-62
2023/04/12 02:45:48;;;;;;;9.27;2.15;;;6.70;93.80;;;;;;5010326;28;20041;-63
2023/04/12 02:48:13;;;;;;;7.15;1.67;;;6.70;93.80;;;;;;4994003;28;20054;-63
2023/04/12 02:50:39;;;;;;;8.90;1.67;;;6.80;94.10;;;;;;5011478;28;20459;-62
2023/04/12 02:53:05;;;;;;;12.13;2.15;;;6.80;94.20;;;;;;5009796;28;20125;-70
2023/04/12 02:55:31;;;;;;;6.28;1.60;;;6.90;93.90;;;;;;4998068;28;20057;-71
2023/04/12 02:57:57;;;;;;;4.57;1.25;;;6.90;94.10;;;;;;4997341;28;20120;-64
2023/04/12 03:00:23;;;;;;;4.95;1.17;;;6.90;93.80;;;;;;5011345;28;20112;-63
2023/04/12 03:02:51;;;;;;;10.60;2.35;;;7.00;93.60;;;;;;5009906;28;20042;-62
2023/04/12 03:05:18;;;;;;;16.35;1.80;;;7.00;93.80;;;;;;4993993;28;20100;-62
2023/04/12 03:07:43;;;;;;;12.98;2.28;;;7.00;94.20;;;;;;5010909;28;20122;-62
2023/04/12 03:10:12;;;;;;;8.30;2.13;;;7.00;94.50;;;;;;5008885;28;20602;-62
2023/04/12 03:12:38;;;;;;;8.00;1.83;;;7.00;95.10;;;;;;5011311;28;20041;-62
2023/04/12 03:15:05;;;;;;;11.55;2.22;;;7.00;95.60;;;;;;4975324;28;20502;-63
2023/04/12 03:17:30;;;;;;;7.68;1.02;;;7.00;96.20;;;;;;5011402;28;20058;-62
2023/04/12 03:20:02;;;;;;;8.32;2.00;;;7.00;97.00;;;;;;5009525;28;20462;-62
2023/04/12 03:22:28;;;;;;;5.47;1.63;;;7.00;97.90;;;;;;4989279;28;20040;-62
2023/04/12 03:24:54;;;;;;;14.32;2.35;;;7.00;98.30;;;;;;4991874;28;20038;-83
2023/04/12 03:27:20;;;;;;;8.50;2.78;;;6.90;98.60;;;;;;4992954;28;20045;-62
2023/04/12 03:29:46;;;;;;;8.80;1.98;;;7.00;99.00;;;;;;5010878;28;20060;-62
2023/04/12 03:32:11;;;;;;;4.30;1.80;;;7.00;99.50;;;;;;5009319;28;20046;-62
2023/04/12 03:34:37;;;;;;;4.63;1.88;;;7.00;99.70;;;;;;5009492;28;20045;-62
2023/04/12 03:37:03;;;;;;;10.35;1.60;;;7.00;99.70;;;;;;5009068;28;20381;-62
2023/04/12 03:39:28;;;;;;;5.03;1.45;;;7.00;99.40;;;;;;5010767;28;20089;-63
2023/04/12 03:41:54;;;;;;;9.23;1.88;;;7.10;99.30;;;;;;5009164;28;20114;-62
2023/04/12 03:44:20;;;;;;;10.88;2.20;;;7.10;99.10;;;;;;5010967;28;20030;-62
2023/04/12 03:46:47;;;;;;;5.93;2.03;;;7.10;99.00;;;;;;4992471;28;20072;-62
2023/04/12 03:49:13;;;;;;;6.47;2.13;;;7.20;99.30;;;;;;5009490;28;20042;-62
2023/04/12 03:51:42;;;;;;;12.15;1.73;;;7.20;99.30;;;;;;5009658;28;20068;-62
2023/04/12 03:54:12;;;;;;;3.70;1.55;;;7.20;99.40;;;;;;5004475;28;20427;-62
2023/04/12 03:56:38;;;;;;;8.30;2.03;;;7.30;99.60;;;;;;5010667;28;20041;-62
2023/04/12 03:59:06;;;;;;;7.88;2.30;;;7.30;99.90;;;;;;5008698;28;20033;-62
2023/04/12 04:01:33;;;;;;;14.77;2.17;;;7.30;99.90;;;;;;5010772;28;20045;-62
2023/04/12 04:03:59;;;;;;;5.00;1.52;;;7.30;99.90;;;;;;5008885;28;20491;-62
2023/04/12 04:06:25;;;;;;;6.90;2.10;;;7.30;99.90;;;;;;5009643;28;20038;-64
2023/04/12 04:08:51;;;;;;;5.63;1.48;;;7.40;99.90;;;;;;5009218;28;20044;-61
2023/04/12 04:11:17;;;;;;;4.78;1.80;;;7.40;99.90;;;;;;5008045;28;20467;-62
2023/04/12 04:13:43;;;;;;;6.82;1.40;;;7.40;99.90;;;;;;5010154;28;20054;-79
2023/04/12 04:16:11;;;;;;;5.72;1.27;;;7.40;99.90;;;;;;5007775;28;20057;-61
2023/04/12 04:18:37;;;;;;;19.77;2.45;;;7.40;99.90;;;;;;5010084;28;20104;-62
2023/04/12 04:21:03;;;;;;;8.43;1.88;;;7.30;99.90;;;;;;5008110;28;20049;-62
2023/04/12 04:23:37;;;;;;;4.35;1.05;;;7.30;99.90;;;;;;5009845;28;20041;-62
2023/04/12 04:26:05;;;;;;;7.80;1.80;;;7.30;99.90;;;;;;5009109;28;20046;-62
2023/04/12 04:28:32;;;;;;;5.28;1.42;;;7.30;99.90;;;;;;5008892;28;20081;-62
2023/04/12 04:31:02;;;;;;;6.38;1.98;;;7.30;99.90;;;;;;5009618;28;20416;-83
2023/04/12 04:33:28;;;;;;;9.75;2.22;;;7.30;99.90;;;;;;4995240;28;20492;-83
2023/04/12 04:35:55;;;;;;;10.85;2.05;;;7.20;99.90;;;;;;5009841;28;20045;-62
2023/04/12 04:38:24;;;;;;;6.93;1.80;;;7.30;99.90;;;;;;5007598;28;20128;-80
2023/04/12 04:40:53;;;;;;;6.90;2.03;;;7.30;99.90;;;;;;5009028;28;20508;-62
2023/04/12 04:43:19;;;;;;;9.15;1.85;;;7.30;99.90;;;;;;5008755;28;20389;-84
2023/04/12 04:45:49;;;;;;;7.13;1.40;;;7.30;99.90;;;;;;5008541;28;20048;-78
2023/04/12 04:48:15;;;;;;;;;;;7.30;99.90;;;;;;5009667;28;20041;-62
2023/04/12 04:50:41;;;;;;;5.25;1.45;;;7.30;99.90;;;;;;5007944;28;20756;-62
2023/04/12 04:53:06;;;;;;;4.18;0.98;;;7.30;99.90;;;;;;4990076;28;20096;-63
2023/04/12 04:55:32;;;;;;;6.95;1.50;;;7.20;99.90;;;;;;5007376;28;20454;-63
2023/04/12 04:57:58;;;;;;;5.97;1.48;;;7.20;99.90;;;;;;5008531;28;20045;-63
2023/04/12 05:00:24;;;;;;;4.18;1.15;;;7.30;99.90;;;;;;5008317;28;20041;-64
2023/04/12 05:02:50;;;;;;;3.13;1.52;;;7.20;99.90;;;;;;5007225;28;20096;-64
2023/04/12 05:05:16;;;;;;;5.90;1.63;;;7.30;99.90;;;;;;5009100;28;20042;-88
2023/04/12 05:07:42;;;;;;;2.40;0.65;;;7.20;99.90;;;;;;5007540;28;20060;-65
2023/04/12 05:10:09;;;;;;;4.28;1.13;;;7.20;99.90;;;;;;4987491;28;20052;-65
2023/04/12 05:12:36;;;;;;;4.93;1.52;;;7.20;99.90;;;;;;4989543;28;20495;-65
2023/04/12 05:15:02;;;;;;;17.48;3.45;;;7.30;99.90;;;;;;5009359;28;20522;-65
2023/04/12 05:17:28;;;;;;;6.95;1.10;;;7.20;99.90;;;;;;5007629;28;20515;-65
2023/04/12 05:19:54;;;;;;;7.03;1.00;;;7.20;99.90;;;;;;4990742;28;20050;-65
2023/04/12 05:22:20;;;;;;;2.25;0.82;;;7.20;99.90;;;;;;5008508;28;20404;-64
2023/04/12 05:24:50;;;;;;;7.68;1.75;;;7.20;99.90;;;;;;5007700;28;20042;-65
2023/04/12 05:27:16;;;;;;;7.97;1.85;;;7.20;99.90;;;;;;5008596;28;20129;-65
2023/04/12 05:29:42;;;;;;;7.43;1.85;;;7.30;99.90;;;;;;5006942;28;20046;-65
2023/04/12 05:32:08;;;;;;;10.23;1.58;;;7.20;99.90;;;;;;4991327;28;20046;-82
2023/04/12 05:34:37;;;;;;;7.78;1.13;;;7.20;99.90;;;;;;5007314;28;20822;-65
2023/04/12 05:37:03;;;;;;;8.80;1.70;;;7.20;99.90;;;;;;5010882;28;20105;-65
2023/04/12 05:39:30;;;;;;;4.35;1.40;;;7.30;99.90;;;;;;5009815;28;20088;-65
2023/04/12 05:41:56;;;;;;;5.35;1.15;;;7.30;99.90;;;;;;5011343;28;20076;-65
2023/04/12 05:44:21;;;;;;;5.50;1.35;;;7.30;99.90;;;;;;5010049;28;20123;-65
2023/04/12 05:46:47;;;;;;;4.28;0.77;;;7.30;99.90;;;;;;5008460;28;20049;-65
2023/04/12 05:49:13;;;;;;;6.97;1.13;;;7.30;99.90;;;;;;5008227;28;20046;-65
2023/04/12 05:51:39;;;;;;;1.60;0.82;;;7.30;99.90;;;;;;4988664;28;20046;-65
2023/04/12 05:54:06;;;;;;;11.93;1.05;;;7.30;99.90;;;;;;4990560;28;20408;-66
2023/04/12 05:56:32;;;;;;;3.42;1.10;;;7.40;99.90;;;;;;5007177;28;20370;-65
2023/04/12 05:59:00;;;;;;;8.98;1.38;;;7.40;99.90;;;;;;4990265;28;20053;-65
2023/04/12 06:01:30;;;;;;;4.35;1.05;;;7.40;99.90;;;;;;4990269;28;20050;-64
2023/04/12 06:03:56;;;;;;;4.80;0.93;;;7.40;99.90;;;;;;4989442;28;20053;-65
2023/04/12 06:06:22;;;;;;;8.73;1.00;;;7.30;99.90;;;;;;5008180;28;20038;-66
2023/04/12 06:08:48;;;;;;;4.50;1.02;;;7.30;99.90;;;;;;5006853;28;20038;-75
2023/04/12 06:11:15;;;;;;;4.13;1.58;;;7.40;99.90;;;;;;5004913;28;20393;-65
2023/04/12 06:13:40;;;;;;;1.98;0.73;;;7.40;99.90;;;;;;4973012;28;20059;-64
2023/04/12 06:16:07;;;;;;;1.98;0.63;;;7.40;99.90;;;;;;5007763;28;20049;-80
2023/04/12 06:18:33;;;;;;;6.38;1.40;;;7.40;99.90;;;;;;5007697;28;20084;-64
2023/04/12 06:20:59;;;;;;;6.07;1.45;;;7.40;99.90;;;;;;5007051;28;20042;-65
2023/04/12 06:23:25;;;;;;;6.65;0.90;;;7.40;99.90;;;;;;5007463;28;20117;-87
2023/04/12 06:25:52;;;;;;;3.88;0.82;;;7.40;99.90;;;;;;5006386;28;20558;-72
2023/04/12 06:28:18;;;;;;;3.00;1.20;;;7.40;99.90;;;;;;5008151;28;20091;-68
2023/04/12 06:30:44;;;;;;;9.27;1.17;;;7.40;99.90;;;;;;5006179;28;20415;-82
2023/04/12 06:33:10;;;;;;;7.80;1.80;;;7.40;99.90;;;;;;5007273;28;20041;-83
2023/04/12 06:35:36;;;;;;;3.00;0.68;;;7.40;99.90;;;;;;4988292;28;20455;-65
2023/04/12 06:38:01;;;;;;;4.05;1.15;;;7.50;99.90;;;;;;5007054;28;20046;-65
2023/04/12 06:40:27;;;;;;;0.88;0.20;;;7.50;99.90;;;;;;5007868;28;20038;-65
2023/04/12 06:42:53;;;;;;;4.80;1.20;;;7.40;99.90;;;;;;4991742;28;20042;-64
2023/04/12 06:45:19;;;;;;;5.72;1.33;;;7.40;99.90;;;;;;5007994;28;20053;-87
2023/04/12 06:47:46;;;;;;;3.88;1.23;;;7.50;99.90;;;;;;5006095;28;20038;-65
2023/04/12 06:50:12;;;;;;;4.78;1.25;;;7.50;99.90;;;;;;4990054;28;20539;-86
2023/04/12 06:52:37;;;;;;;4.20;1.08;;;7.50;99.90;;;;;;5006366;28;20228;-65
2023/04/12 06:55:04;;;;;;;3.60;1.27;;;7.50;99.90;;;;;;5007352;28;20062;-65
2023/04/12 06:57:30;;;;;;;4.55;1.20;;;7.50;99.90;;;;;;4989599;28;20056;-67
2023/04/12 06:59:56;;;;;;;4.20;1.00;;;7.50;99.90;;;;;;5005971;28;20041;-65
2023/04/12 07:02:21;;;;;;;2.90;0.90;;;7.60;99.90;;;;;;5006980;28;20041;-71
2023/04/12 07:04:52;;;;;;;5.65;1.08;;;7.50;99.90;;;;;;4988190;28;20053;-68
2023/04/12 07:07:19;;;;;;;6.28;1.52;;;7.60;99.90;;;;;;5007484;28;20044;-65
2023/04/12 07:09:46;;;;;;;1.90;1.10;;;7.50;99.90;;;;;;5005314;28;20093;-65
2023/04/12 07:12:12;;;;;;;3.00;0.63;;;7.50;99.90;;;;;;5003466;28;20065;-64
2023/04/12 07:14:38;;;;;;;2.70;1.38;;;7.50;99.90;;;;;;5006581;28;20065;-65
2023/04/12 07:17:05;;;;;;;0.40;0.40;;;7.50;99.90;;;;;;5007508;28;20411;-65
2023/04/12 07:19:30;;;;;;;3.97;1.10;;;7.50;99.90;;;;;;5010303;28;20584;-64
2023/04/12 07:21:57;;;;;;;5.93;0.93;;;7.50;99.90;;;;;;5009048;28;20134;-65
2023/04/12 07:24:22;;;;;;;0.90;0.80;;;7.50;99.90;;;;;;5010990;28;20046;-64
2023/04/12 07:26:51;;;;;;;5.18;1.35;;;7.50;99.90;;;;;;5008996;28;20063;-64
2023/04/12 07:29:17;;;;;;;7.07;1.08;;;7.50;99.90;;;;;;4993028;28;20133;-64
2023/04/12 07:31:42;;;;;;;4.55;1.20;;;7.50;99.90;;;;;;5002681;28;20132;-64
2023/04/12 07:34:08;;;;;;;3.20;1.13;;;7.60;99.90;;;;;;5010340;28;20112;-65
2023/04/12 07:36:34;;;;;;;4.50;1.23;;;7.60;99.90;;;;;;5010157;28;20044;-64
2023/04/12 07:38:59;;;;;;;2.95;1.10;;;7.60;99.90;;;;;;5009042;28;20104;-78
2023/04/12 07:41:25;;;;;;;4.30;1.02;;;7.60;99.90;;;;;;5009905;28;20042;-65
2023/04/12 07:43:51;;;;;;;10.27;2.30;;;7.60;99.90;;;;;;5006768;28;20142;-64
2023/04/12 07:46:17;;;;;;;9.45;0.90;;;7.60;99.90;;;;;;5008413;28;20065;-64
2023/04/12 07:48:43;;;;;;;2.53;0.93;;;7.50;99.90;;;;;;4998085;28;20467;-64
2023/04/12 07:51:08;;;;;;;3.55;0.70;;;7.60;99.90;;;;;;5008482;28;20054;-64
2023/04/12 07:53:34;;;;;;;2.28;0.65;;;7.60;99.90;;;;;;4989601;28;20050;-64
2023/04/12 07:56:02;;;;;;;4.75;1.30;;;7.60;99.90;;;;;;5007896;28;20060;-65
2023/04/12 07:58:28;;;;;;;3.67;1.50;;;7.70;99.90;;;;;;4993011;28;20057;-86
2023/04/12 08:00:55;;;;;;;6.75;1.00;;;7.70;99.90;;;;;;5008096;28;20431;-65
2023/04/12 08:03:21;;;;;;;7.80;1.10;;;7.70;99.90;;;;;;4992243;28;20050;-65
2023/04/12 08:05:52;;;;;;;2.17;1.73;;;7.70;99.90;;;;;;4990681;28;20042;-65
2023/04/12 08:08:18;;;;;;;;;;;7.60;99.90;;;;;;4977225;28;20118;-64
2023/04/12 08:10:44;;;;;;;1.88;0.85;;;7.70;99.90;;;;;;5009147;28;19922;-86
2023/04/12 08:13:09;;;;;;;5.10;1.50;;;7.70;99.90;;;;;;5009349;28;20497;-65
2023/04/12 08:15:35;;;;;;;2.88;0.70;;;7.70;99.90;;;;;;5009880;28;20042;-65
2023/04/12 08:18:01;;;;;;;1.55;0.68;;;7.70;99.90;;;;;;5008821;28;20061;-81
2023/04/12 08:20:27;;;;;;;0.98;0.88;;;7.70;99.90;;;;;;5010516;28;20041;-86
2023/04/12 08:22:53;;;;;;;1.13;0.63;;;7.70;99.90;;;;;;4989953;28;20104;-65
2023/04/12 08:25:20;;;;;;;2.55;1.10;;;7.70;99.90;;;;;;4991982;28;20050;-66
2023/04/12 08:27:48;;;;;;;3.67;1.33;;;7.70;99.90;;;;;;4989580;28;20049;-65
2023/04/12 08:30:14;;;;;;;3.85;1.38;;;7.70;99.90;;;;;;5009688;28;20397;-66
2023/04/12 08:32:40;;;;;;;6.40;1.42;;;7.70;99.90;;;;;;5008926;28;20049;-86
2023/04/12 08:35:06;;;;;;;3.08;1.15;;;7.80;99.90;;;;;;5008701;28;20078;-65
2023/04/12 08:37:32;;;;;;;5.18;1.38;;;7.80;99.90;;;;;;5010067;28;20479;-65
2023/04/12 08:40:01;;;;;;;3.58;1.25;;;7.80;99.90;;;;;;5007875;28;20038;-65
2023/04/12 08:42:27;;;;;;;4.35;1.27;;;7.80;99.90;;;;;;5009953;28;20042;-80
2023/04/12 08:44:53;;;;;;;3.42;1.30;;;7.80;99.90;;;;;;4996395;28;20128;-66
2023/04/12 08:47:19;;;;;;;3.13;1.40;;;7.90;99.90;;;;;;5008603;28;20054;-65
2023/04/12 08:49:45;;;;;;;7.18;1.48;;;7.90;99.90;;;;;;5007997;28;20506;-65
2023/04/12 08:52:12;;;;;;;1.55;1.05;;;7.90;99.90;;;;;;5008910;28;20042;-65
2023/04/12 08:54:37;;;;;;;1.83;1.13;;;7.90;99.90;;;;;;5009068;28;20404;-66
2023/04/12 08:57:07;;;;;;;6.05;1.50;;;8.00;99.90;;;;;;5007590;28;20096;-65
2023/04/12 08:59:36;;;;;;;3.33;1.10;;;8.00;99.90;;;;;;5009756;28;20154;-65
2023/04/12 09:02:02;;;;;;;1.67;1.10;;;8.10;99.90;;;;;;5007661;28;20042;-66
2023/04/12 09:04:28;;;;;;;3.58;1.40;;;8.10;99.90;;;;;;5009376;28;20103;-87
2023/04/12 09:06:54;;;;;;;3.20;1.00;;;8.10;99.90;;;;;;4989797;28;20076;-66
2023/04/12 09:09:43;;;;;;;0.60;0.55;;;8.20;99.90;;;;;;5008989;28;20066;-82
2023/04/12 09:12:09;;;;;;;2.83;1.70;;;8.20;99.90;;;;;;5008908;28;20503;-82
2023/04/12 09:14:36;;;;;;;3.42;1.10;;;8.30;99.90;;;;;;5007197;28;20049;-84
2023/04/12 09:17:02;;;;;;;1.85;1.20;;;8.30;99.90;;;;;;5008579;28;20050;-66
2023/04/12 09:19:35;;;;;;;2.45;1.20;;;8.40;99.90;;;;;;5006011;28;20056;-66
2023/04/12 09:22:01;;;;;;;2.50;1.13;;;8.50;99.90;;;;;;5004625;28;20463;-68
2023/04/12 09:24:28;;;;;;;4.28;1.30;;;8.50;99.90;;;;;;5007745;28;20049;-65
2023/04/12 09:27:01;;;;;;;1.73;1.23;;;8.50;99.90;;;;;;4987856;28;20054;-66
2023/04/12 09:29:28;;;;;;;2.67;1.23;;;8.50;99.90;;;;;;5007778;28;20516;-66
2023/04/12 09:32:01;;;;;;;2.80;1.42;;;8.50;99.90;;;;;;5006354;28;20029;-65
2023/04/12 09:34:27;;;;;;;2.47;1.45;;;8.50;99.90;;;;;;5008341;28;20069;-66
2023/04/12 09:36:53;;;;;;;2.75;1.38;;;8.40;99.90;;;;;;5006250;28;20042;-66
2023/04/12 09:39:19;;;;;;;4.38;1.85;;;8.40;99.90;;;;;;5008035;28;20095;-66
2023/04/12 09:41:45;;;;;;;2.83;1.27;;;8.40;99.90;;;;;;5007167;28;20104;-73
2023/04/12 09:44:29;;;;;;;2.92;1.50;;;8.40;99.90;;;;;;5007453;28;20048;-82
2023/04/12 09:46:55;;;;;;;0.65;0.55;;;8.40;99.90;;;;;;5007556;28;20073;-65
2023/04/12 09:49:38;;;;;;;3.22;1.60;;;8.30;99.90;;;;;;5006590;28;20081;-65
2023/04/12 09:52:12;;;;;;;5.30;2.50;;;8.30;99.90;;;;;;5007194;28;20431;-66
2023/04/12 09:54:47;;;;;;;3.78;1.42;;;8.30;99.90;;;;;;5007308;28;20064;-68
2023/04/12 09:57:20;;;;;;;1.42;1.05;;;8.30;99.90;;;;;;5007204;28;20503;-65
2023/04/12 09:59:49;;;;;;;3.88;1.27;;;8.30;99.90;;;;;;4990823;28;20042;-65
2023/04/12 10:02:25;;;;;;;1.77;1.45;;;8.30;99.90;;;;;;5006714;28;20045;-66
2023/04/12 10:04:51;;;;;;;1.83;1.00;;;8.40;99.90;;;;;;4974430;28;20072;-86
2023/04/12 10:07:18;;;;;;;5.85;3.25;;;8.50;99.90;;;;;;5007043;28;20040;-66
2023/04/12 10:09:44;;;;;;;3.58;1.13;;;8.60;99.90;;;;;;5010287;28;20053;-66
2023/04/12 10:12:10;;;;;;;5.32;1.67;;;8.60;99.90;;;;;;4991410;28;20636;-66
2023/04/12 10:14:37;;;;;;;2.65;1.00;;;8.70;99.90;;;;;;5009960;28;20041;-66
2023/04/12 10:17:04;;;;;;;2.13;0.88;;;8.90;99.90;;;;;;5010230;28;20056;-68
2023/04/12 10:19:34;;;;;;;3.15;1.02;;;8.90;99.90;;;;;;4988733;28;20121;-65
2023/04/12 10:22:00;;;;;;;;;;;9.00;99.90;;;;;;4990570;28;20530;-66
2023/04/12 10:24:27;;;;;;;1.17;0.95;;;9.10;99.90;;;;;;4988981;28;20379;-66
2023/04/12 10:26:56;;;;;;;0.80;0.80;;;9.20;99.90;;;;;;5008074;28;20117;-65
2023/04/12 10:29:26;;;;;;;1.48;1.00;;;9.30;99.90;;;;;;5007036;28;20116;-65
2023/04/12 10:31:52;;;;;;;;;;;9.50;99.90;;;;;;4997462;28;20053;-66
2023/04/12 10:34:26;;;;;;;1.55;1.25;;;9.60;99.90;;;;;;5006817;28;20334;-67
2023/04/12 10:36:55;;;;;;;1.63;0.90;;;9.80;99.90;;;;;;4985656;28;20443;-67
2023/04/12 10:39:42;;;;;;;1.20;1.10;;;10.10;99.90;;;;;;5007032;28;20125;-66
2023/04/12 10:42:21;;;;;;;2.40;1.02;;;10.20;99.90;;;;;;5004893;28;20053;-65
2023/04/12 10:44:48;;;;;;;3.38;0.88;;;10.30;99.90;;;;;;5003728;28;20420;-66
2023/04/12 10:47:14;;;;;;;2.45;0.90;;;10.50;99.90;;;;;;5007190;28;20049;-65
2023/04/12 10:49:40;;;;;;;1.25;1.20;;;10.50;99.90;;;;;;5005778;28;20494;-65
2023/04/12 10:52:09;;;;;;;3.63;1.30;;;10.60;99.90;;;;;;4994432;28;20081;-65
2023/04/12 10:54:37;;;;;;;2.13;1.30;;;10.60;99.90;;;;;;4991150;28;20109;-65
2023/04/12 10:57:03;;;;;;;2.17;1.50;;;10.70;99.90;;;;;;5006485;28;20037;-67
2023/04/12 10:59:55;;;;;;;2.30;1.65;;;10.90;99.90;;;;;;5001733;28;20041;-68
2023/04/12 11:02:21;;;;;;;3.03;1.30;;;11.10;99.90;;;;;;4985142;28;20060;-68
2023/04/12 11:05:18;;;;;;;2.38;1.10;;;11.40;99.90;;;;;;5008042;28;20049;-65
2023/04/12 11:07:45;;;;;;;4.40;1.27;;;11.40;99.90;;;;;;4997425;28;20065;-66
2023/04/12 11:10:16;;;;;;;3.42;1.40;;;11.30;99.90;;;;;;4993451;28;20058;-65
2023/04/12 11:12:49;;;;;;;4.90;1.60;;;11.20;99.90;;;;;;5010033;28;20065;-66
2023/04/12 11:15:15;;;;;;;4.75;1.52;;;11.20;99.90;;;;;;5015540;28;20503;-65
2023/04/12 11:17:41;;;;;;;4.82;1.58;;;11.10;99.90;;;;;;4993900;28;20606;-66
2023/04/12 11:20:12;;;;;;;3.22;1.60;;;11.10;99.90;;;;;;4991650;28;20045;-80
2023/04/12 11:22:39;;;;;;;2.85;1.35;;;11.20;99.90;;;;;;5010696;28;20056;-66
2023/04/12 11:25:05;;;;;;;2.00;1.60;;;11.20;99.90;;;;;;5008903;28;20538;-82
2023/04/12 11:27:31;;;;;;;5.25;1.95;;;11.30;99.90;;;;;;5011342;28;20392;-81
2023/04/12 11:29:59;;;;;;;6.05;2.00;;;11.30;99.90;;;;;;5009999;28;20045;-66
2023/04/12 11:32:29;;;;;;;4.00;1.45;;;11.50;99.90;;;;;;5009849;28;20089;-75
2023/04/12 11:34:56;;;;;;;2.95;1.63;;;11.80;99.90;;;;;;5010980;28;20038;-66
2023/04/12 11:37:23;;;;;;;5.47;1.67;;;12.00;99.90;;;;;;5008561;28;20492;-81
2023/04/12 11:39:55;;;;;;;8.25;2.88;;;12.10;99.90;;;;;;5010322;28;20049;-75
2023/04/12 11:42:26;;;;;;;4.88;1.75;;;12.10;99.90;;;;;;5003579;28;20424;-66
2023/04/12 11:44:52;;;;;;;1.98;1.35;;;12.10;99.90;;;;;;5008079;28;20510;-67
2023/04/12 11:47:23;;;;;;;7.53;1.77;;;12.00;99.90;;;;;;4993842;28;20120;-79
2023/04/12 11:49:52;;;;;;;;;;;11.90;99.50;;;;;;5008637;28;20062;-66
2023/04/12 11:52:19;;;;;;;8.23;2.13;;;12.10;99.90;;;;;;4996539;28;19932;-65
2023/04/12 11:54:47;;;;;;;6.15;1.40;;;12.30;98.70;;;;;;4973180;28;20553;-66
2023/04/12 11:57:18;;;;;;;8.38;2.05;;;12.50;96.90;;;;;;5007896;28;20034;-66
2023/04/12 11:59:45;;;;;;;8.27;1.58;;;12.70;98.10;;;;;;5007865;28;20073;-65
2023/04/12 12:02:12;;;;;;;13.80;2.13;;;12.80;94.10;;;;;;5006900;28;20037;-84
2023/04/12 12:04:41;;;;;;;9.35;2.10;;;12.80;90.60;;;;;;5007107;28;20049;-65
2023/04/12 12:07:07;;;;;;;4.88;1.75;;;12.80;94.10;;;;;;5007470;28;20460;-66
2023/04/12 12:09:34;;;;;;;7.90;2.30;;;12.90;92.00;;;;;;5008261;28;20495;-65
2023/04/12 12:12:00;;;;;;;6.40;1.67;;;13.10;91.00;;;;;;4988576;28;20107;-65
2023/04/12 12:14:27;;;;;;;7.88;1.80;;;13.30;90.90;;;;;;5008188;28;20042;-67
2023/04/12 12:16:57;;;;;;;12.60;2.33;;;13.60;91.90;;;;;;5002345;28;20049;-65
2023/04/12 12:19:31;;;;;;;8.98;2.30;;;13.90;87.60;;;;;;5007991;28;20034;-66
2023/04/12 12:22:17;;;;;;;5.40;1.55;;;14.30;81.40;;;;;;5007687;28;20050;-66
2023/04/12 12:24:52;;;;;;;9.30;2.22;;;14.50;69.70;;;;;;5001195;28;20050;-66
2023/04/12 12:27:19;;;;;;;7.85;1.77;;;14.50;62.90;;;;;;4988138;28;20057;-66
2023/04/12 12:29:49;;;;;;;10.70;1.85;;;14.20;70.40;;;;;;5006465;28;20049;-77
2023/04/12 12:32:16;;;;;;;7.45;1.70;;;14.00;61.40;;;;;;5007368;28;20038;-66
2023/04/12 12:34:53;;;;;;;12.55;1.83;;;13.90;68.20;;;;;;5007293;28;20074;-66
2023/04/12 12:37:29;;;;;;;6.43;2.05;;;13.90;71.70;;;;;;4989012;28;20077;-66
2023/04/12 12:40:31;;;;;;;9.82;2.28;;;13.80;70.50;;;;;;4990529;28;20443;-66
2023/04/12 12:42:57;;;;;;;4.20;1.40;;;13.70;63.30;;;;;;4988988;28;20050;-66
2023/04/12 12:45:25;;;;;;;6.35;1.70;;;13.70;73.80;;;;;;5006764;28;20041;-67
2023/04/12 12:47:57;;;;;;;4.22;1.45;;;13.60;68.60;;;;;;5006055;28;20034;-66
2023/04/12 12:50:25;;;;;;;13.02;2.03;;;13.60;77.50;;;;;;5006518;28;20042;-76
2023/04/12 12:52:52;;;;;;;7.05;1.83;;;13.50;76.70;;;;;;4997007;28;20064;-67
2023/04/12 12:55:19;;;;;;;8.00;2.17;;;13.60;81.50;;;;;;5003786;28;20096;-66
2023/04/12 12:57:47;;;;;;;11.70;1.95;;;13.60;72.10;;;;;;5005790;28;20486;-71
2023/04/12 13:00:14;;;;;;;11.43;2.63;;;13.60;79.70;;;;;;4987821;28;21146;-66